METAR Data
IDs: Format: Raw Decoded Include TAF

Data at: 2039 UTC 17 Jun 2019

METAR for:KTVY (Tooele Valley Arpt, UT, US)
Text:KTVY 172035Z AUTO 04006KT 10SM CLR 24/08 A2999 RMK AO2 LTG DSNT E THRU W
Temperature: 24.0°C ( 75°F)
Dewpoint: 8.0°C ( 46°F) [RH = 36%]
Pressure (altimeter):29.99 inches Hg (1015.7 mb)
Winds:from the NE (40 degrees) at 7 MPH (6 knots; 3.1 m/s)
Visibility:10 or more sm (16+ km)
Ceiling:at least 12,000 feet AGL
Clouds:sky clear below 12,000 feet AGL
QC Flag:automated observation with no human augmentation
Text:KTVY 172015Z AUTO 04007KT 10SM CLR 24/08 A3000 RMK AO2 LTG DSNT SE AND S
Temperature: 24.0°C ( 75°F)
Dewpoint: 8.0°C ( 46°F) [RH = 36%]
Pressure (altimeter):30.00 inches Hg (1016.0 mb)
Winds:from the NE (40 degrees) at 8 MPH (7 knots; 3.6 m/s)
Visibility:10 or more sm (16+ km)
Ceiling:at least 12,000 feet AGL
Clouds:sky clear below 12,000 feet AGL
QC Flag:automated observation with no human augmentation
Text:KTVY 171955Z AUTO 03008KT 10SM CLR 24/08 A3000 RMK AO2 LTG DSNT S
Temperature: 24.0°C ( 75°F)
Dewpoint: 8.0°C ( 46°F) [RH = 36%]
Pressure (altimeter):30.00 inches Hg (1016.0 mb)
Winds:from the NNE (30 degrees) at 9 MPH (8 knots; 4.1 m/s)
Visibility:10 or more sm (16+ km)
Ceiling:at least 12,000 feet AGL
Clouds:sky clear below 12,000 feet AGL
QC Flag:automated observation with no human augmentation
Text:KTVY 171935Z AUTO 03009KT 10SM CLR 25/08 A3001 RMK AO2 LTG DSNT SE AND S
Temperature: 25.0°C ( 77°F)
Dewpoint: 8.0°C ( 46°F) [RH = 34%]
Pressure (altimeter):30.01 inches Hg (1016.3 mb)
Winds:from the NNE (30 degrees) at 10 MPH (9 knots; 4.6 m/s)
Visibility:10 or more sm (16+ km)
Ceiling:at least 12,000 feet AGL
Clouds:sky clear below 12,000 feet AGL
QC Flag:automated observation with no human augmentation
Text:KTVY 171915Z AUTO 02008KT 10SM VCTS CLR 25/08 A3001 RMK AO2 LTG DSNT SW
Temperature: 25.0°C ( 77°F)
Dewpoint: 8.0°C ( 46°F) [RH = 34%]
Pressure (altimeter):30.01 inches Hg (1016.3 mb)
Winds:from the NNE (20 degrees) at 9 MPH (8 knots; 4.1 m/s)
Visibility:10 or more sm (16+ km)
Ceiling:at least 12,000 feet AGL
Clouds:sky clear below 12,000 feet AGL
Weather:VCTS (thunderstorm in vicinity)
QC Flag:automated observation with no human augmentation
Text:KTVY 171855Z AUTO 02008KT 10SM CLR 26/08 A3001 RMK AO2 LTG DSNT N THRU S
Temperature: 26.0°C ( 79°F)
Dewpoint: 8.0°C ( 46°F) [RH = 32%]
Pressure (altimeter):30.01 inches Hg (1016.3 mb)
Winds:from the NNE (20 degrees) at 9 MPH (8 knots; 4.1 m/s)
Visibility:10 or more sm (16+ km)
Ceiling:at least 12,000 feet AGL
Clouds:sky clear below 12,000 feet AGL
QC Flag:automated observation with no human augmentation
Text:KTVY 171835Z AUTO 36007KT 330V030 10SM CLR 26/09 A3001 RMK AO2 LTG DSNT ALQS
Temperature: 26.0°C ( 79°F)
Dewpoint: 9.0°C ( 48°F) [RH = 34%]
Pressure (altimeter):30.01 inches Hg (1016.3 mb)
Winds:from the N (360 degrees) at 8 MPH (7 knots; 3.6 m/s)
Visibility:10 or more sm (16+ km)
Ceiling:at least 12,000 feet AGL
Clouds:sky clear below 12,000 feet AGL
QC Flag:automated observation with no human augmentation
Text:KTVY 171815Z AUTO 34009KT 330V040 10SM CLR 26/08 A3001 RMK AO2 LTG DSNT NE
Temperature: 26.0°C ( 79°F)
Dewpoint: 8.0°C ( 46°F) [RH = 32%]
Pressure (altimeter):30.01 inches Hg (1016.3 mb)
Winds:from the NNW (340 degrees) at 10 MPH (9 knots; 4.6 m/s)
Visibility:10 or more sm (16+ km)
Ceiling:at least 12,000 feet AGL
Clouds:sky clear below 12,000 feet AGL
QC Flag:automated observation with no human augmentation
Text:KTVY 171755Z AUTO 33006KT 10SM CLR 25/08 A3002 RMK AO2
Temperature: 25.0°C ( 77°F)
Dewpoint: 8.0°C ( 46°F) [RH = 34%]
Pressure (altimeter):30.02 inches Hg (1016.7 mb)
Winds:from the NNW (330 degrees) at 7 MPH (6 knots; 3.1 m/s)
Visibility:10 or more sm (16+ km)
Ceiling:at least 12,000 feet AGL
Clouds:sky clear below 12,000 feet AGL
QC Flag:automated observation with no human augmentation
Text:KTVY 171735Z AUTO 02007KT 10SM CLR 25/08 A3002 RMK AO2
Temperature: 25.0°C ( 77°F)
Dewpoint: 8.0°C ( 46°F) [RH = 34%]
Pressure (altimeter):30.02 inches Hg (1016.7 mb)
Winds:from the NNE (20 degrees) at 8 MPH (7 knots; 3.6 m/s)
Visibility:10 or more sm (16+ km)
Ceiling:at least 12,000 feet AGL
Clouds:sky clear below 12,000 feet AGL
QC Flag:automated observation with no human augmentation
Text:KTVY 171715Z AUTO 33008KT 10SM CLR 25/08 A3002 RMK AO2 LTG DSNT SE
Temperature: 25.0°C ( 77°F)
Dewpoint: 8.0°C ( 46°F) [RH = 34%]
Pressure (altimeter):30.02 inches Hg (1016.7 mb)
Winds:from the NNW (330 degrees) at 9 MPH (8 knots; 4.1 m/s)
Visibility:10 or more sm (16+ km)
Ceiling:at least 12,000 feet AGL
Clouds:sky clear below 12,000 feet AGL
QC Flag:automated observation with no human augmentation
Text:KTVY 171655Z AUTO 02004KT 10SM CLR 25/09 A3002 RMK AO2 LTG DSNT SE
Temperature: 25.0°C ( 77°F)
Dewpoint: 9.0°C ( 48°F) [RH = 36%]
Pressure (altimeter):30.02 inches Hg (1016.7 mb)
Winds:from the NNE (20 degrees) at 5 MPH (4 knots; 2.1 m/s)
Visibility:10 or more sm (16+ km)
Ceiling:at least 12,000 feet AGL
Clouds:sky clear below 12,000 feet AGL
QC Flag:automated observation with no human augmentation
Text:KTVY 171635Z AUTO 35005KT 10SM CLR 24/10 A3002 RMK AO2
Temperature: 24.0°C ( 75°F)
Dewpoint: 10.0°C ( 50°F) [RH = 41%]
Pressure (altimeter):30.02 inches Hg (1016.7 mb)
Winds:from the N (350 degrees) at 6 MPH (5 knots; 2.6 m/s)
Visibility:10 or more sm (16+ km)
Ceiling:at least 12,000 feet AGL
Clouds:sky clear below 12,000 feet AGL
QC Flag:automated observation with no human augmentation
Text:KTVY 171615Z AUTO 34007KT 10SM CLR 24/09 A3002 RMK AO2
Temperature: 24.0°C ( 75°F)
Dewpoint: 9.0°C ( 48°F) [RH = 38%]
Pressure (altimeter):30.02 inches Hg (1016.7 mb)
Winds:from the NNW (340 degrees) at 8 MPH (7 knots; 3.6 m/s)
Visibility:10 or more sm (16+ km)
Ceiling:at least 12,000 feet AGL
Clouds:sky clear below 12,000 feet AGL
QC Flag:automated observation with no human augmentation
Text:KTVY 171555Z AUTO 27006KT 10SM CLR 24/08 A3002 RMK AO2
Temperature: 24.0°C ( 75°F)
Dewpoint: 8.0°C ( 46°F) [RH = 36%]
Pressure (altimeter):30.02 inches Hg (1016.7 mb)
Winds:from the W (270 degrees) at 7 MPH (6 knots; 3.1 m/s)
Visibility:10 or more sm (16+ km)
Ceiling:at least 12,000 feet AGL
Clouds:sky clear below 12,000 feet AGL
QC Flag:automated observation with no human augmentation